sensor_id;sensor_type;location;lat;lon;timestamp;pressure;altitude;pressure_sealevel;temperature;humidity
12475;BME280;6302;42.624;23.334;2023-03-01T00:01:23;93727.00;;;5.60;100.00
12475;BME280;6302;42.624;23.334;2023-03-01T00:03:50;93723.13;;;5.54;100.00
12475;BME280;6302;42.624;23.334;2023-03-01T00:06:18;93716.28;;;5.49;100.00
12475;BME280;6302;42.624;23.334;2023-03-01T00:08:47;93716.63;;;5.48;100.00
12475;BME280;6302;42.624;23.334;2023-03-01T00:11:15;93711.59;;;5.39;100.00
12475;BME280;6302;42.624;23.334;2023-03-01T00:13:43;93714.88;;;5.33;100.00
12475;BME280;6302;42.624;23.334;2023-03-01T00:16:12;93704.06;;;5.38;100.00
12475;BME280;6302;42.624;23.334;2023-03-01T00:18:39;93709.25;;;5.34;100.00
12475;BME280;6302;42.624;23.334;2023-03-01T00:21:06;93699.97;;;5.40;100.00
12475;BME280;6302;42.624;23.334;2023-03-01T00:23:34;93692.91;;;5.44;100.00
12475;BME280;6302;42.624;23.334;2023-03-01T00:26:05;93691.38;;;5.43;100.00
12475;BME280;6302;42.624;23.334;2023-03-01T00:28:32;93688.47;;;5.48;100.00
12475;BME280;6302;42.624;23.334;2023-03-01T00:31:03;93681.22;;;5.42;100.00
12475;BME280;6302;42.624;23.334;2023-03-01T00:33:30;93679.41;;;5.46;100.00
12475;BME280;6302;42.624;23.334;2023-03-01T00:35:57;93673.13;;;5.50;100.00
12475;BME280;6302;42.624;23.334;2023-03-01T00:38:24;93669.25;;;5.44;100.00
12475;BME280;6302;42.624;23.334;2023-03-01T00:40:51;93664.84;;;5.29;100.00
12475;BME280;6302;42.624;23.334;2023-03-01T00:43:20;93648.00;;;5.30;100.00
12475;BME280;6302;42.624;23.334;2023-03-01T00:45:47;93665.75;;;5.37;100.00
12475;BME280;6302;42.624;23.334;2023-03-01T00:48:13;93668.72;;;5.35;100.00
12475;BME280;6302;42.624;23.334;2023-03-01T00:50:40;93664.66;;;5.38;100.00
12475;BME280;6302;42.624;23.334;2023-03-01T00:53:07;93666.03;;;5.32;100.00
12475;BME280;6302;42.624;23.334;2023-03-01T00:55:35;93650.16;;;5.24;100.00
12475;BME280;6302;42.624;23.334;2023-03-01T00:58:02;93654.47;;;5.36;100.00
12475;BME280;6302;42.624;23.334;2023-03-01T01:00:30;93663.88;;;5.37;100.00
12475;BME280;6302;42.624;23.334;2023-03-01T01:02:57;93660.28;;;5.45;100.00
12475;BME280;6302;42.624;23.334;2023-03-01T01:05:24;93652.31;;;5.42;100.00
12475;BME280;6302;42.624;23.334;2023-03-01T01:07:51;93657.56;;;5.42;100.00
12475;BME280;6302;42.624;23.334;2023-03-01T01:10:18;93659.09;;;5.43;100.00
12475;BME280;6302;42.624;23.334;2023-03-01T01:12:45;93655.81;;;5.49;100.00
12475;BME280;6302;42.624;23.334;2023-03-01T01:15:12;93651.03;;;5.55;100.00
12475;BME280;6302;42.624;23.334;2023-03-01T01:17:43;93653.13;;;5.46;100.00
12475;BME280;6302;42.624;23.334;2023-03-01T01:20:11;93656.00;;;5.37;100.00
12475;BME280;6302;42.624;23.334;2023-03-01T01:22:37;93663.75;;;5.30;100.00
12475;BME280;6302;42.624;23.334;2023-03-01T01:25:05;93658.91;;;5.32;100.00
12475;BME280;6302;42.624;23.334;2023-03-01T01:27:32;93662.72;;;5.35;100.00
12475;BME280;6302;42.624;23.334;2023-03-01T01:29:58;93655.59;;;5.35;100.00
12475;BME280;6302;42.624;23.334;2023-03-01T01:32:26;93660.44;;;5.33;100.00
12475;BME280;6302;42.624;23.334;2023-03-01T01:34:54;93640.69;;;5.20;100.00
12475;BME280;6302;42.624;23.334;2023-03-01T01:37:21;93661.13;;;5.30;100.00
12475;BME280;6302;42.624;23.334;2023-03-01T01:39:48;93670.81;;;5.26;100.00
12475;BME280;6302;42.624;23.334;2023-03-01T01:42:16;93683.41;;;5.17;100.00
12475;BME280;6302;42.624;23.334;2023-03-01T01:44:46;93679.13;;;5.28;100.00
12475;BME280;6302;42.624;23.334;2023-03-01T01:47:15;93677.59;;;5.27;100.00
12475;BME280;6302;42.624;23.334;2023-03-01T01:49:45;93678.47;;;5.35;100.00
12475;BME280;6302;42.624;23.334;2023-03-01T01:52:17;93675.50;;;5.36;100.00
12475;BME280;6302;42.624;23.334;2023-03-01T01:54:49;93670.19;;;5.33;100.00
12475;BME280;6302;42.624;23.334;2023-03-01T01:57:20;93671.88;;;5.44;100.00
12475;BME280;6302;42.624;23.334;2023-03-01T01:59:51;93676.38;;;5.44;100.00
12475;BME280;6302;42.624;23.334;2023-03-01T02:02:20;93671.00;;;5.37;100.00
12475;BME280;6302;42.624;23.334;2023-03-01T02:04:53;93671.47;;;5.42;100.00
12475;BME280;6302;42.624;23.334;2023-03-01T02:07:23;93670.13;;;5.29;100.00
12475;BME280;6302;42.624;23.334;2023-03-01T02:09:52;93663.88;;;5.37;100.00
12475;BME280;6302;42.624;23.334;2023-03-01T02:12:21;93646.06;;;5.27;100.00
12475;BME280;6302;42.624;23.334;2023-03-01T02:14:49;93657.94;;;5.40;100.00
12475;BME280;6302;42.624;23.334;2023-03-01T02:17:17;93663.34;;;5.28;100.00
12475;BME280;6302;42.624;23.334;2023-03-01T02:19:53;93660.38;;;5.30;100.00
12475;BME280;6302;42.624;23.334;2023-03-01T02:22:28;93660.25;;;5.22;100.00
12475;BME280;6302;42.624;23.334;2023-03-01T02:25:10;93665.22;;;5.28;100.00
12475;BME280;6302;42.624;23.334;2023-03-01T02:27:44;93668.78;;;5.39;100.00
12475;BME280;6302;42.624;23.334;2023-03-01T02:30:17;93665.75;;;5.37;100.00
12475;BME280;6302;42.624;23.334;2023-03-01T02:32:44;93669.03;;;5.30;100.00
12475;BME280;6302;42.624;23.334;2023-03-01T02:35:13;93664.84;;;5.29;100.00
12475;BME280;6302;42.624;23.334;2023-03-01T02:37:42;93675.78;;;5.31;100.00
12475;BME280;6302;42.624;23.334;2023-03-01T02:40:12;93673.59;;;5.33;100.00
12475;BME280;6302;42.624;23.334;2023-03-01T02:42:47;93673.50;;;5.30;100.00
12475;BME280;6302;42.624;23.334;2023-03-01T02:45:17;93670.34;;;5.43;100.00
12475;BME280;6302;42.624;23.334;2023-03-01T02:47:44;93674.69;;;5.32;100.00
12475;BME280;6302;42.624;23.334;2023-03-01T02:50:19;93668.19;;;5.26;100.00
12475;BME280;6302;42.624;23.334;2023-03-01T02:52:55;93669.34;;;5.28;100.00
12475;BME280;6302;42.624;23.334;2023-03-01T02:55:23;93667.84;;;5.28;100.00
12475;BME280;6302;42.624;23.334;2023-03-01T02:57:50;93669.53;;;5.39;100.00
12475;BME280;6302;42.624;23.334;2023-03-01T03:00:20;93664.53;;;5.31;100.00
12475;BME280;6302;42.624;23.334;2023-03-01T03:02:48;93673.72;;;5.21;100.00
12475;BME280;6302;42.624;23.334;2023-03-01T03:05:17;93664.16;;;5.32;100.00
12475;BME280;6302;42.624;23.334;2023-03-01T03:07:45;93663.22;;;5.21;100.00
12475;BME280;6302;42.624;23.334;2023-03-01T03:10:15;93661.75;;;5.23;100.00
12475;BME280;6302;42.624;23.334;2023-03-01T03:12:48;93667.09;;;5.27;100.00
12475;BME280;6302;42.624;23.334;2023-03-01T03:15:15;93661.31;;;5.18;100.00
12475;BME280;6302;42.624;23.334;2023-03-01T03:17:44;93664.53;;;5.31;100.00
12475;BME280;6302;42.624;23.334;2023-03-01T03:20:13;93673.09;;;5.28;100.00
12475;BME280;6302;42.624;23.334;2023-03-01T03:22:44;93663.75;;;5.30;100.00
12475;BME280;6302;42.624;23.334;2023-03-01T03:25:11;93668.47;;;5.21;100.00
12475;BME280;6302;42.624;23.334;2023-03-01T03:27:39;93647.31;;;5.14;100.00
12475;BME280;6302;42.624;23.334;2023-03-01T03:30:08;93658.78;;;5.25;100.00
12475;BME280;6302;42.624;23.334;2023-03-01T03:32:39;93665.78;;;5.17;100.00
12475;BME280;6302;42.624;23.334;2023-03-01T03:35:09;93654.03;;;5.31;100.00
12475;BME280;6302;42.624;23.334;2023-03-01T03:37:36;93669.03;;;5.30;100.00
12475;BME280;6302;42.624;23.334;2023-03-01T03:40:27;93662.63;;;5.31;100.00
12475;BME280;6302;42.624;23.334;2023-03-01T03:42:55;93667.72;;;5.43;100.00
12475;BME280;6302;42.624;23.334;2023-03-01T03:45:21;93665.88;;;5.44;100.00
12475;BME280;6302;42.624;23.334;2023-03-01T03:47:48;93661.28;;;5.41;100.00
12475;BME280;6302;42.624;23.334;2023-03-01T03:50:17;93665.94;;;5.47;100.00
12475;BME280;6302;42.624;23.334;2023-03-01T03:52:44;93677.06;;;5.41;100.00
12475;BME280;6302;42.624;23.334;2023-03-01T03:55:12;93675.59;;;5.43;100.00
12475;BME280;6302;42.624;23.334;2023-03-01T03:57:40;93668.63;;;5.28;100.00
12475;BME280;6302;42.624;23.334;2023-03-01T04:00:10;93665.47;;;5.42;100.00
12475;BME280;6302;42.624;23.334;2023-03-01T04:02:38;93668.31;;;5.33;100.00
12475;BME280;6302;42.624;23.334;2023-03-01T04:05:06;93671.88;;;5.44;100.00
12475;BME280;6302;42.624;23.334;2023-03-01T04:07:34;93667.19;;;5.34;100.00
12475;BME280;6302;42.624;23.334;2023-03-01T04:10:03;93676.91;;;5.30;100.00
12475;BME280;6302;42.624;23.334;2023-03-01T04:12:31;93676.94;;;5.34;100.00
12475;BME280;6302;42.624;23.334;2023-03-01T04:15:03;93678.97;;;5.21;100.00
12475;BME280;6302;42.624;23.334;2023-03-01T04:17:37;93675.94;;;5.19;100.00
12475;BME280;6302;42.624;23.334;2023-03-01T04:20:06;93671.09;;;5.21;100.00
12475;BME280;6302;42.624;23.334;2023-03-01T04:22:35;93672.91;;;5.17;100.00
12475;BME280;6302;42.624;23.334;2023-03-01T04:25:01;93682.03;;;5.23;100.00
12475;BME280;6302;42.624;23.334;2023-03-01T04:27:31;93677.06;;;5.18;100.00
12475;BME280;6302;42.624;23.334;2023-03-01T04:29:58;93688.25;;;5.15;100.00
12475;BME280;6302;42.624;23.334;2023-03-01T04:32:25;93689.34;;;5.14;100.00
12475;BME280;6302;42.624;23.334;2023-03-01T04:34:52;93683.28;;;5.10;100.00
12475;BME280;6302;42.624;23.334;2023-03-01T04:37:18;93683.50;;;5.20;100.00
12475;BME280;6302;42.624;23.334;2023-03-01T04:39:46;93677.47;;;5.20;100.00
12475;BME280;6302;42.624;23.334;2023-03-01T04:42:13;93682.47;;;5.06;100.00
12475;BME280;6302;42.624;23.334;2023-03-01T04:44:40;93687.00;;;5.09;100.00
12475;BME280;6302;42.624;23.334;2023-03-01T04:47:07;93685.50;;;5.08;100.00
12475;BME280;6302;42.624;23.334;2023-03-01T04:49:34;93677.22;;;5.06;100.00
12475;BME280;6302;42.624;23.334;2023-03-01T04:52:01;93668.09;;;5.00;100.00
12475;BME280;6302;42.624;23.334;2023-03-01T04:54:28;93671.41;;;4.97;100.00
12475;BME280;6302;42.624;23.334;2023-03-01T04:56:56;93670.34;;;5.01;100.00
12475;BME280;6302;42.624;23.334;2023-03-01T04:59:23;93669.75;;;5.08;100.00
12475;BME280;6302;42.624;23.334;2023-03-01T05:01:50;93675.75;;;5.08;100.00
12475;BME280;6302;42.624;23.334;2023-03-01T05:04:17;93680.13;;;5.01;100.00
12475;BME280;6302;42.624;23.334;2023-03-01T05:06:44;93672.53;;;4.96;100.00
12475;BME280;6302;42.624;23.334;2023-03-01T05:09:11;93659.13;;;5.01;100.00
12475;BME280;6302;42.624;23.334;2023-03-01T05:11:38;93674.50;;;5.02;100.00
12475;BME280;6302;42.624;23.334;2023-03-01T05:14:07;93672.53;;;4.96;100.00
12475;BME280;6302;42.624;23.334;2023-03-01T05:16:35;93674.44;;;4.99;100.00
12475;BME280;6302;42.624;23.334;2023-03-01T05:19:02;93667.03;;;5.04;100.00
12475;BME280;6302;42.624;23.334;2023-03-01T05:21:36;93668.91;;;5.04;100.00
12475;BME280;6302;42.624;23.334;2023-03-01T05:24:24;93670.84;;;5.07;100.00
12475;BME280;6302;42.624;23.334;2023-03-01T05:26:51;93671.41;;;5.16;100.00
12475;BME280;6302;42.624;23.334;2023-03-01T05:29:20;93669.19;;;5.18;100.00
12475;BME280;6302;42.624;23.334;2023-03-01T05:31:51;93670.53;;;5.31;100.00
12475;BME280;6302;42.624;23.334;2023-03-01T05:34:18;93673.88;;;5.28;100.00
12475;BME280;6302;42.624;23.334;2023-03-01T05:36:48;93672.81;;;5.33;100.00
12475;BME280;6302;42.624;23.334;2023-03-01T05:39:16;93675.50;;;5.36;100.00
12475;BME280;6302;42.624;23.334;2023-03-01T05:41:43;93675.22;;;5.41;100.00
12475;BME280;6302;42.624;23.334;2023-03-01T05:44:10;93668.84;;;5.42;100.00
12475;BME280;6302;42.624;23.334;2023-03-01T05:46:40;93674.69;;;5.55;100.00
12475;BME280;6302;42.624;23.334;2023-03-01T05:49:06;93670.66;;;5.61;100.00
12475;BME280;6302;42.624;23.334;2023-03-01T05:51:33;93681.94;;;5.61;100.00
12475;BME280;6302;42.624;23.334;2023-03-01T05:54:00;93674.34;;;5.56;100.00
12475;BME280;6302;42.624;23.334;2023-03-01T05:56:27;93685.09;;;5.70;100.00
12475;BME280;6302;42.624;23.334;2023-03-01T05:58:54;93686.03;;;5.81;100.00
12475;BME280;6302;42.624;23.334;2023-03-01T06:01:21;93689.72;;;5.77;100.00
12475;BME280;6302;42.624;23.334;2023-03-01T06:03:49;93695.88;;;5.84;100.00
12475;BME280;6302;42.624;23.334;2023-03-01T06:06:16;93699.28;;;5.85;100.00
12475;BME280;6302;42.624;23.334;2023-03-01T06:08:42;93693.56;;;5.83;100.00
12475;BME280;6302;42.624;23.334;2023-03-01T06:11:09;93701.13;;;5.84;100.00
12475;BME280;6302;42.624;23.334;2023-03-01T06:13:36;93706.81;;;5.86;100.00
12475;BME280;6302;42.624;23.334;2023-03-01T06:16:04;93717.84;;;5.96;100.00
12475;BME280;6302;42.624;23.334;2023-03-01T06:18:31;93711.06;;;5.95;100.00
12475;BME280;6302;42.624;23.334;2023-03-01T06:20:59;93709.47;;;5.90;100.00
12475;BME280;6302;42.624;23.334;2023-03-01T06:23:26;93688.00;;;5.84;100.00
12475;BME280;6302;42.624;23.334;2023-03-01T06:25:53;93715.50;;;5.90;100.00
12475;BME280;6302;42.624;23.334;2023-03-01T06:28:20;93713.81;;;6.02;100.00
12475;BME280;6302;42.624;23.334;2023-03-01T06:30:49;93710.41;;;6.01;100.00
12475;BME280;6302;42.624;23.334;2023-03-01T06:33:17;93698.84;;;6.06;100.00
12475;BME280;6302;42.624;23.334;2023-03-01T06:35:45;93703.28;;;6.02;100.00
12475;BME280;6302;42.624;23.334;2023-03-01T06:38:13;93700.75;;;6.09;100.00
12475;BME280;6302;42.624;23.334;2023-03-01T06:40:42;93702.28;;;6.10;100.00
12475;BME280;6302;42.624;23.334;2023-03-01T06:43:09;93710.13;;;6.06;100.00
12475;BME280;6302;42.624;23.334;2023-03-01T06:45:36;93709.13;;;6.14;100.00
12475;BME280;6302;42.624;23.334;2023-03-01T06:48:04;93721.72;;;6.28;100.00
12475;BME280;6302;42.624;23.334;2023-03-01T06:50:31;93717.69;;;6.34;100.00
12475;BME280;6302;42.624;23.334;2023-03-01T06:52:58;93714.22;;;6.30;100.00
12475;BME280;6302;42.624;23.334;2023-03-01T06:55:26;93710.19;;;6.36;100.00
12475;BME280;6302;42.624;23.334;2023-03-01T06:57:56;93712.56;;;6.44;100.00
12475;BME280;6302;42.624;23.334;2023-03-01T07:00:24;93710.13;;;6.32;100.00
12475;BME280;6302;42.624;23.334;2023-03-01T07:02:52;93716.41;;;6.50;100.00
12475;BME280;6302;42.624;23.334;2023-03-01T07:05:19;93720.59;;;6.55;100.00
12475;BME280;6302;42.624;23.334;2023-03-01T07:07:45;93711.50;;;6.49;100.00
12475;BME280;6302;42.624;23.334;2023-03-01T07:10:12;93714.16;;;6.49;100.00
12475;BME280;6302;42.624;23.334;2023-03-01T07:12:40;93715.94;;;6.45;100.00
12475;BME280;6302;42.624;23.334;2023-03-01T07:15:09;93708.91;;;6.52;100.00
12475;BME280;6302;42.624;23.334;2023-03-01T07:17:36;93703.75;;;6.60;100.00
12475;BME280;6302;42.624;23.334;2023-03-01T07:20:03;93706.91;;;6.72;100.00
12475;BME280;6302;42.624;23.334;2023-03-01T07:22:30;93708.09;;;6.75;100.00
12475;BME280;6302;42.624;23.334;2023-03-01T07:24:57;93710.84;;;6.85;100.00
12475;BME280;6302;42.624;23.334;2023-03-01T07:27:23;93710.16;;;6.88;100.00
12475;BME280;6302;42.624;23.334;2023-03-01T07:29:52;93714.97;;;6.83;100.00
12475;BME280;6302;42.624;23.334;2023-03-01T07:32:18;93702.09;;;6.78;100.00
12475;BME280;6302;42.624;23.334;2023-03-01T07:34:45;93702.78;;;6.71;100.00
12475;BME280;6302;42.624;23.334;2023-03-01T07:37:12;93704.06;;;6.84;100.00
12475;BME280;6302;42.624;23.334;2023-03-01T07:39:39;93704.47;;;6.86;100.00
12475;BME280;6302;42.624;23.334;2023-03-01T07:42:05;93682.03;;;6.66;100.00
12475;BME280;6302;42.624;23.334;2023-03-01T07:44:32;93702.56;;;6.83;100.00
12475;BME280;6302;42.624;23.334;2023-03-01T07:47:01;93706.13;;;6.68;100.00
12475;BME280;6302;42.624;23.334;2023-03-01T07:49:29;93708.47;;;6.77;100.00
12475;BME280;6302;42.624;23.334;2023-03-01T07:51:56;93694.44;;;6.66;100.00
12475;BME280;6302;42.624;23.334;2023-03-01T07:54:22;93694.56;;;6.76;100.00
12475;BME280;6302;42.624;23.334;2023-03-01T07:56:49;93691.19;;;6.76;100.00
12475;BME280;6302;42.624;23.334;2023-03-01T07:59:16;93696.47;;;6.79;100.00
12475;BME280;6302;42.624;23.334;2023-03-01T08:01:43;93642.09;;;6.64;100.00
12475;BME280;6302;42.624;23.334;2023-03-01T08:04:11;93687.63;;;6.94;100.00
12475;BME280;6302;42.624;23.334;2023-03-01T08:06:38;93673.06;;;6.74;100.00
12475;BME280;6302;42.624;23.334;2023-03-01T08:09:04;93685.38;;;6.96;100.00
12475;BME280;6302;42.624;23.334;2023-03-01T08:11:33;93688.34;;;6.91;100.00
12475;BME280;6302;42.624;23.334;2023-03-01T08:14:01;93690.56;;;6.86;100.00
12475;BME280;6302;42.624;23.334;2023-03-01T08:16:28;93691.06;;;6.98;100.00
12475;BME280;6302;42.624;23.334;2023-03-01T08:18:54;93693.59;;;6.91;100.00
12475;BME280;6302;42.624;23.334;2023-03-01T08:21:26;93694.75;;;6.94;100.00
12475;BME280;6302;42.624;23.334;2023-03-01T08:23:52;93683.97;;;7.02;100.00
12475;BME280;6302;42.624;23.334;2023-03-01T08:26:20;93687.53;;;6.87;100.00
12475;BME280;6302;42.624;23.334;2023-03-01T08:28:48;93688.72;;;6.90;100.00
12475;BME280;6302;42.624;23.334;2023-03-01T08:31:18;93699.06;;;7.05;100.00
12475;BME280;6302;42.624;23.334;2023-03-01T08:33:46;93690.72;;;7.00;100.00
12475;BME280;6302;42.624;23.334;2023-03-01T08:36:16;93677.59;;;7.03;100.00
12475;BME280;6302;42.624;23.334;2023-03-01T08:38:45;93673.38;;;6.99;100.00
12475;BME280;6302;42.624;23.334;2023-03-01T08:41:12;93685.56;;;7.10;100.00
12475;BME280;6302;42.624;23.334;2023-03-01T08:43:39;93689.19;;;7.32;100.00
12475;BME280;6302;42.624;23.334;2023-03-01T08:46:06;93683.16;;;7.32;100.00
12475;BME280;6302;42.624;23.334;2023-03-01T08:48:33;93674.97;;;7.40;100.00
12475;BME280;6302;42.624;23.334;2023-03-01T08:51:07;93679.91;;;7.45;100.00
12475;BME280;6302;42.624;23.334;2023-03-01T08:53:34;93675.25;;;7.32;100.00
12475;BME280;6302;42.624;23.334;2023-03-01T08:56:03;93692.41;;;7.52;100.00
12475;BME280;6302;42.624;23.334;2023-03-01T08:58:30;93658.78;;;7.42;100.00
12475;BME280;6302;42.624;23.334;2023-03-01T09:00:57;93687.56;;;7.61;100.00
12475;BME280;6302;42.624;23.334;2023-03-01T09:03:24;93685.19;;;7.49;100.00
12475;BME280;6302;42.624;23.334;2023-03-01T09:05:52;93687.84;;;7.49;100.00
12475;BME280;6302;42.624;23.334;2023-03-01T09:08:19;93682.69;;;7.63;100.00
12475;BME280;6302;42.624;23.334;2023-03-01T09:10:46;93683.78;;;7.58;100.00
12475;BME280;6302;42.624;23.334;2023-03-01T09:13:14;93683.13;;;7.65;100.00
12475;BME280;6302;42.624;23.334;2023-03-01T09:15:41;93692.19;;;7.67;100.00
12475;BME280;6302;42.624;23.334;2023-03-01T09:18:08;93695.97;;;7.70;100.00
12475;BME280;6302;42.624;23.334;2023-03-01T09:20:35;93683.19;;;7.75;100.00
12475;BME280;6302;42.624;23.334;2023-03-01T09:23:01;93677.22;;;7.82;100.00
12475;BME280;6302;42.624;23.334;2023-03-01T09:25:28;93657.78;;;7.57;100.00
12475;BME280;6302;42.624;23.334;2023-03-01T09:27:55;93686.97;;;7.78;100.00
12475;BME280;6302;42.624;23.334;2023-03-01T09:30:23;93670.81;;;7.79;100.00
12475;BME280;6302;42.624;23.334;2023-03-01T09:32:50;93678.69;;;7.76;100.00
12475;BME280;6302;42.624;23.334;2023-03-01T09:35:18;93684.22;;;7.64;100.00
12475;BME280;6302;42.624;23.334;2023-03-01T09:37:45;93669.72;;;7.44;100.00
12475;BME280;6302;42.624;23.334;2023-03-01T09:40:15;93682.50;;;7.42;100.00
12475;BME280;6302;42.624;23.334;2023-03-01T09:42:50;93656.72;;;7.25;100.00
12475;BME280;6302;42.624;23.334;2023-03-01T09:45:27;93673.81;;;7.41;100.00
12475;BME280;6302;42.624;23.334;2023-03-01T09:47:56;93669.78;;;7.51;100.00
12475;BME280;6302;42.624;23.334;2023-03-01T09:50:25;93672.06;;;7.52;100.00
12475;BME280;6302;42.624;23.334;2023-03-01T09:53:00;93665.69;;;7.57;100.00
12475;BME280;6302;42.624;23.334;2023-03-01T09:55:33;93662.59;;;7.48;100.00
12475;BME280;6302;42.624;23.334;2023-03-01T09:58:05;93665.69;;;7.57;100.00
12475;BME280;6302;42.624;23.334;2023-03-01T10:00:41;93633.28;;;7.56;100.00
12475;BME280;6302;42.624;23.334;2023-03-01T10:03:16;93659.44;;;7.72;100.00
12475;BME280;6302;42.624;23.334;2023-03-01T10:05:52;93652.88;;;7.55;100.00
12475;BME280;6302;42.624;23.334;2023-03-01T10:08:29;93654.44;;;7.60;100.00
12475;BME280;6302;42.624;23.334;2023-03-01T10:11:01;93647.00;;;7.76;100.00
12475;BME280;6302;42.624;23.334;2023-03-01T10:13:33;93648.41;;;7.63;100.00
12475;BME280;6302;42.624;23.334;2023-03-01T10:16:10;93652.94;;;7.62;100.00
12475;BME280;6302;42.624;23.334;2023-03-01T10:18:39;93648.41;;;7.63;100.00
12475;BME280;6302;42.624;23.334;2023-03-01T10:21:14;93644.59;;;7.57;100.00
12475;BME280;6302;42.624;23.334;2023-03-01T10:23:42;93627.66;;;7.58;100.00
12475;BME280;6302;42.624;23.334;2023-03-01T10:26:28;93617.28;;;7.79;100.00
12475;BME280;6302;42.624;23.334;2023-03-01T10:29:02;93635.03;;;7.85;100.00
12475;BME280;6302;42.624;23.334;2023-03-01T10:31:38;93629.78;;;7.89;100.00
12475;BME280;6302;42.624;23.334;2023-03-01T10:34:10;93625.63;;;7.84;100.00
12475;BME280;6302;42.624;23.334;2023-03-01T10:36:38;93621.44;;;7.80;100.00
12475;BME280;6302;42.624;23.334;2023-03-01T10:39:12;93626.63;;;7.73;100.00
12475;BME280;6302;42.624;23.334;2023-03-01T10:41:52;93627.44;;;7.77;100.00
12475;BME280;6302;42.624;23.334;2023-03-01T10:44:36;93610.94;;;7.91;100.00
12475;BME280;6302;42.624;23.334;2023-03-01T10:47:08;93603.69;;;7.77;100.00
12475;BME280;6302;42.624;23.334;2023-03-01T10:49:51;93616.19;;;7.83;100.00
12475;BME280;6302;42.624;23.334;2023-03-01T10:52:20;93605.59;;;7.80;100.00
12475;BME280;6302;42.624;23.334;2023-03-01T10:54:53;93609.13;;;7.98;100.00
12475;BME280;6302;42.624;23.334;2023-03-01T10:57:41;93606.91;;;8.04;100.00
12475;BME280;6302;42.624;23.334;2023-03-01T11:00:22;93618.25;;;8.15;100.00
12475;BME280;6302;42.624;23.334;2023-03-01T11:03:03;93614.88;;;8.14;100.00
12475;BME280;6302;42.624;23.334;2023-03-01T11:05:36;93619.16;;;8.29;100.00
12475;BME280;6302;42.624;23.334;2023-03-01T11:08:03;93624.09;;;8.34;100.00
12475;BME280;6302;42.624;23.334;2023-03-01T11:10:32;93633.13;;;8.33;100.00
12475;BME280;6302;42.624;23.334;2023-03-01T11:13:13;93620.31;;;8.35;100.00
12475;BME280;6302;42.624;23.334;2023-03-01T11:15:41;93625.50;;;8.25;100.00
12475;BME280;6302;42.624;23.334;2023-03-01T11:18:20;93588.41;;;8.04;100.00
12475;BME280;6302;42.624;23.334;2023-03-01T11:20:48;93615.75;;;8.32;100.00
12475;BME280;6302;42.624;23.334;2023-03-01T11:23:15;93603.56;;;8.17;100.00
12475;BME280;6302;42.624;23.334;2023-03-01T11:25:46;93625.50;;;8.21;100.00
12475;BME280;6302;42.624;23.334;2023-03-01T11:28:17;93568.69;;;7.80;100.00
12475;BME280;6302;42.624;23.334;2023-03-01T11:30:49;93632.22;;;8.12;100.00
12475;BME280;6302;42.624;23.334;2023-03-01T11:33:28;93626.94;;;8.15;100.00
12475;BME280;6302;42.624;23.334;2023-03-01T11:36:01;93625.50;;;8.25;100.00
12475;BME280;6302;42.624;23.334;2023-03-01T11:38:30;93579.31;;;7.94;100.00
12475;BME280;6302;42.624;23.334;2023-03-01T11:41:04;93618.72;;;8.24;100.00
12475;BME280;6302;42.624;23.334;2023-03-01T11:43:36;93612.66;;;8.23;100.00
12475;BME280;6302;42.624;23.334;2023-03-01T11:46:35;93610.41;;;8.25;100.00
12475;BME280;6302;42.624;23.334;2023-03-01T11:49:17;93601.41;;;8.26;100.00
12475;BME280;6302;42.624;23.334;2023-03-01T11:51:52;93588.44;;;8.07;100.00
12475;BME280;6302;42.624;23.334;2023-03-01T11:54:33;93593.66;;;7.97;100.00
12475;BME280;6302;42.624;23.334;2023-03-01T11:57:12;93584.25;;;7.99;100.00
12475;BME280;6302;42.624;23.334;2023-03-01T12:00:08;93586.97;;;8.10;100.00
12475;BME280;6302;42.624;23.334;2023-03-01T12:03:07;93585.22;;;8.31;100.00
12475;BME280;6302;42.624;23.334;2023-03-01T12:06:12;93585.63;;;8.40;100.00
12475;BME280;6302;42.624;23.334;2023-03-01T12:08:57;93585.75;;;8.65;100.00
12475;BME280;6302;42.624;23.334;2023-03-01T12:11:37;93583.03;;;8.55;100.00
12475;BME280;6302;42.624;23.334;2023-03-01T12:14:23;93577.81;;;8.65;100.00
12475;BME280;6302;42.624;23.334;2023-03-01T12:17:27;93576.78;;;8.94;100.00
12475;BME280;6302;42.624;23.334;2023-03-01T12:20:11;93578.69;;;9.08;100.00
12475;BME280;6302;42.624;23.334;2023-03-01T12:22:59;93576.81;;;9.12;100.00
12475;BME280;6302;42.624;23.334;2023-03-01T12:25:34;93576.06;;;9.22;100.00
12475;BME280;6302;42.624;23.334;2023-03-01T12:28:20;93578.31;;;9.16;100.00
12475;BME280;6302;42.624;23.334;2023-03-01T12:31:02;93575.28;;;9.11;100.00
12475;BME280;6302;42.624;23.334;2023-03-01T12:33:41;93579.47;;;9.19;100.00
12475;BME280;6302;42.624;23.334;2023-03-01T12:36:31;93536.38;;;8.90;100.00
12475;BME280;6302;42.624;23.334;2023-03-01T12:39:14;93565.47;;;9.18;100.00
12475;BME280;6302;42.624;23.334;2023-03-01T12:41:48;93517.84;;;8.94;100.00
12475;BME280;6302;42.624;23.334;2023-03-01T12:44:33;93561.72;;;9.23;100.00
12475;BME280;6302;42.624;23.334;2023-03-01T12:47:14;93566.97;;;9.09;100.00
12475;BME280;6302;42.624;23.334;2023-03-01T12:49:51;93562.84;;;9.22;100.00
12475;BME280;6302;42.624;23.334;2023-03-01T12:52:23;93558.31;;;9.19;100.00
12475;BME280;6302;42.624;23.334;2023-03-01T12:54:54;93559.06;;;9.16;100.00
12475;BME280;6302;42.624;23.334;2023-03-01T12:57:26;93561.34;;;9.32;100.00
12475;BME280;6302;42.624;23.334;2023-03-01T13:00:10;93559.09;;;9.23;100.00
12475;BME280;6302;42.624;23.334;2023-03-01T13:02:49;93560.97;;;9.23;100.00
12475;BME280;6302;42.624;23.334;2023-03-01T13:05:27;93567.75;;;9.16;100.00
12475;BME280;6302;42.624;23.334;2023-03-01T13:08:04;93556.41;;;9.16;100.00
12475;BME280;6302;42.624;23.334;2023-03-01T13:10:40;93546.22;;;9.11;100.00
12475;BME280;6302;42.624;23.334;2023-03-01T13:13:18;93563.59;;;9.19;100.00
12475;BME280;6302;42.624;23.334;2023-03-01T13:15:46;93566.25;;;9.30;100.00
12475;BME280;6302;42.624;23.334;2023-03-01T13:18:28;93562.09;;;9.25;100.00